Time;durP1;ratioP1;P1;durP2;ratioP2;P2;SDS_P1;SDS_P2;PMS_P1;PMS_P2;Temp;Humidity;BMP_temperature;BMP_pressure;BME280_temperature;BME280_humidity;BME280_pressure;Samples;Min_cycle;Max_cycle;Signal;HPM_P1;HPM_P2
2022/05/24 00:02:04;;;;;;;5.78;4.35;;;17.40;99.90;;;;;;5053979;28;20039;-62
2022/05/24 00:04:30;;;;;;;4.05;3.58;;;17.50;99.90;;;;;;5054102;28;20029;-63
2022/05/24 00:06:56;;;;;;;4.32;3.22;;;17.50;99.90;;;;;;5055533;28;20502;-61
2022/05/24 00:09:22;;;;;;;4.10;3.03;;;17.50;99.90;;;;;;5055811;28;20025;-63
2022/05/24 00:11:48;;;;;;;5.45;3.35;;;17.60;99.90;;;;;;5055186;28;20511;-64
2022/05/24 00:14:14;;;;;;;9.13;4.10;;;17.50;99.90;;;;;;5056171;28;20096;-63
2022/05/24 00:16:39;;;;;;;8.32;4.50;;;17.50;99.90;;;;;;5054333;28;20017;-64
2022/05/24 00:19:05;;;;;;;4.53;3.67;;;17.50;99.90;;;;;;5053386;28;20021;-63
2022/05/24 00:21:31;;;;;;;5.43;3.28;;;17.40;99.90;;;;;;5053161;28;20025;-63
2022/05/24 00:23:56;;;;;;;7.90;4.07;;;17.40;99.90;;;;;;5054355;28;20041;-63
2022/05/24 00:26:30;;;;;;;6.13;4.05;;;17.30;99.90;;;;;;5054544;28;20037;-63
2022/05/24 00:28:55;;;;;;;5.60;3.65;;;17.20;99.90;;;;;;5055051;28;20467;-64
2022/05/24 00:31:21;;;;;;;4.25;3.65;;;17.20;99.90;;;;;;5054345;28;20116;-64
2022/05/24 00:33:47;;;;;;;7.70;4.25;;;17.10;99.90;;;;;;5054263;28;20430;-64
2022/05/24 00:36:13;;;;;;;4.20;3.80;;;17.10;99.90;;;;;;5054127;28;20021;-64
2022/05/24 00:38:39;;;;;;;6.28;4.07;;;17.10;99.90;;;;;;5054058;28;20072;-64
2022/05/24 00:41:08;;;;;;;;;;;17.00;99.90;;;;;;5054714;28;20032;-64
2022/05/24 00:43:41;;;;;;;5.60;3.70;;;17.20;99.90;;;;;;5053941;28;19958;-64
2022/05/24 00:46:16;;;;;;;4.35;3.78;;;17.20;99.90;;;;;;5052576;28;20454;-64
2022/05/24 00:49:03;;;;;;;5.65;3.90;;;17.10;99.90;;;;;;5078380;22;20061;-64
2022/05/24 00:51:47;;;;;;;6.25;3.88;;;17.10;99.90;;;;;;5054231;28;20466;-65
2022/05/24 00:54:13;;;;;;;6.03;3.92;;;17.20;99.90;;;;;;5054345;28;20104;-65
2022/05/24 00:56:55;;;;;;;6.43;4.18;;;17.20;99.90;;;;;;5053821;28;20529;-65
2022/05/24 00:59:28;;;;;;;6.13;4.63;;;17.20;99.90;;;;;;5016095;28;20030;-67
2022/05/24 01:01:55;;;;;;;6.90;4.68;;;17.00;99.90;;;;;;5034089;28;20087;-65
2022/05/24 01:04:21;;;;;;;8.82;4.88;;;17.10;99.90;;;;;;5033955;28;20025;-65
2022/05/24 01:06:48;;;;;;;4.93;4.40;;;17.10;99.90;;;;;;5033942;28;20437;-65
2022/05/24 01:09:35;;;;;;;4.22;3.80;;;17.00;99.90;;;;;;5033666;28;20057;-65
2022/05/24 01:12:08;;;;;;;6.13;4.38;;;17.00;99.90;;;;;;5033452;28;20041;-65
2022/05/24 01:14:34;;;;;;;5.72;3.85;;;17.00;99.90;;;;;;5015714;28;20092;-65
2022/05/24 01:17:00;;;;;;;5.47;4.43;;;17.00;99.90;;;;;;5033537;28;20072;-65
2022/05/24 01:19:43;;;;;;;4.30;3.88;;;17.10;99.90;;;;;;5033828;28;20048;-65
2022/05/24 01:22:33;;;;;;;5.40;4.78;;;17.10;99.90;;;;;;5015634;28;20436;-65
2022/05/24 01:25:17;;;;;;;4.22;3.83;;;17.10;99.90;;;;;;5033620;28;20112;-65
2022/05/24 01:27:43;;;;;;;4.97;4.47;;;17.10;99.90;;;;;;5033038;28;20021;-65
2022/05/24 01:30:10;;;;;;;5.07;4.13;;;17.00;99.90;;;;;;5015189;28;20031;-66
2022/05/24 01:38:12;;;;;;;9.00;5.07;;;16.70;99.90;;;;;;5033877;28;20155;-64
2022/05/24 01:40:39;;;;;;;5.82;5.13;;;16.70;99.90;;;;;;5043238;28;20036;-64
2022/05/24 01:43:05;;;;;;;;;;;16.60;99.90;;;;;;5017956;28;20022;-64
2022/05/24 01:45:35;;;;;;;5.38;4.50;;;16.60;99.90;;;;;;5036244;28;19932;-64
2022/05/24 01:48:13;;;;;;;5.07;4.57;;;16.50;99.90;;;;;;5020282;28;20033;-64
2022/05/24 01:50:41;;;;;;;5.30;4.60;;;16.50;99.90;;;;;;5038289;28;20033;-65
2022/05/24 01:53:13;;;;;;;6.03;4.78;;;16.50;99.90;;;;;;5038483;28;20026;-64
2022/05/24 01:55:43;;;;;;;5.30;4.63;;;16.40;99.90;;;;;;5036116;28;20546;-64
2022/05/24 01:58:13;;;;;;;6.70;4.85;;;16.40;99.90;;;;;;5033283;28;20033;-64
2022/05/24 02:00:44;;;;;;;5.18;4.68;;;16.40;99.90;;;;;;5033306;28;20033;-64
2022/05/24 02:03:09;;;;;;;5.10;4.65;;;16.40;99.90;;;;;;5033554;28;20029;-64
2022/05/24 02:05:38;;;;;;;5.07;4.50;;;16.30;99.90;;;;;;5033233;28;20035;-64
2022/05/24 02:08:07;;;;;;;6.03;4.80;;;16.30;99.90;;;;;;5032681;28;20029;-66
2022/05/24 02:10:39;;;;;;;5.78;5.15;;;16.20;99.90;;;;;;5033237;28;20036;-65
2022/05/24 02:13:05;;;;;;;5.63;4.30;;;16.20;99.90;;;;;;5015430;28;20498;-65
2022/05/24 02:15:37;;;;;;;4.68;4.20;;;16.30;99.90;;;;;;5033187;28;20032;-64
2022/05/24 02:18:10;;;;;;;7.65;4.85;;;16.30;99.90;;;;;;5032777;28;20531;-65
2022/05/24 02:20:39;;;;;;;5.45;4.60;;;16.30;99.90;;;;;;5032906;28;20084;-63
2022/05/24 02:23:06;;;;;;;7.68;4.70;;;16.30;99.90;;;;;;5015070;28;20025;-64
2022/05/24 02:25:50;;;;;;;7.05;4.75;;;16.30;99.90;;;;;;5032902;28;20033;-63
2022/05/24 02:28:17;;;;;;;5.18;4.68;;;16.30;99.90;;;;;;5015296;28;20032;-63
2022/05/24 02:31:05;;;;;;;12.82;4.78;;;16.30;99.90;;;;;;5032904;28;20480;-64
2022/05/24 02:33:32;;;;;;;5.05;4.45;;;16.30;99.90;;;;;;5032977;28;20032;-65
2022/05/24 02:35:58;;;;;;;6.82;4.30;;;16.30;99.90;;;;;;5032594;28;20025;-63
2022/05/24 02:38:24;;;;;;;;;;;16.30;99.90;;;;;;5033006;28;20369;-64
2022/05/24 02:43:34;;;;;;;5.25;4.10;;;16.30;99.90;;;;;;5037312;28;20436;-64
2022/05/24 02:45:59;;;;;;;5.47;4.30;;;16.30;99.90;;;;;;5036906;28;20057;-65
2022/05/24 02:48:25;;;;;;;12.13;5.77;;;16.30;99.90;;;;;;5018471;28;20041;-65
2022/05/24 02:50:51;;;;;;;6.22;4.95;;;16.30;99.90;;;;;;5036262;28;20766;-64
2022/05/24 02:53:16;;;;;;;5.83;4.97;;;16.30;99.90;;;;;;5036673;28;20108;-65
2022/05/24 02:55:42;;;;;;;6.20;4.70;;;16.20;99.90;;;;;;5018581;28;20265;-65
2022/05/24 02:58:08;;;;;;;7.03;4.65;;;16.30;99.90;;;;;;5036507;28;20260;-66
2022/05/24 03:00:34;;;;;;;8.90;4.97;;;16.30;99.90;;;;;;5036410;28;20040;-65
2022/05/24 03:02:59;;;;;;;4.93;4.43;;;16.20;99.90;;;;;;5036052;28;20033;-65
2022/05/24 03:05:26;;;;;;;5.82;4.45;;;16.30;99.90;;;;;;5036213;28;20029;-64
2022/05/24 03:10:37;;;;;;;5.95;4.07;;;16.20;99.90;;;;;;5036338;28;20171;-65
2022/05/24 03:15:47;;;;;;;5.93;4.50;;;16.20;99.90;;;;;;5036224;28;20155;-64
2022/05/24 03:18:16;;;;;;;5.65;4.35;;;16.20;99.90;;;;;;5035727;28;20452;-64
2022/05/24 03:20:41;;;;;;;4.20;3.80;;;16.20;99.90;;;;;;5017808;28;20116;-64
2022/05/24 03:23:08;;;;;;;5.50;3.88;;;16.20;99.90;;;;;;5034551;28;20443;-64
2022/05/24 03:25:34;;;;;;;5.00;4.50;;;16.20;99.90;;;;;;5036343;28;20442;-65
2022/05/24 03:28:01;;;;;;;6.90;4.75;;;16.20;99.90;;;;;;5035725;28;20484;-64
2022/05/24 03:30:27;;;;;;;5.20;4.30;;;16.10;99.90;;;;;;5039225;28;20030;-65
2022/05/24 03:32:53;;;;;;;5.93;4.63;;;16.30;99.90;;;;;;5037624;28;20056;-65
2022/05/24 03:35:20;;;;;;;6.72;4.80;;;16.30;99.90;;;;;;5035705;28;20025;-64
2022/05/24 03:37:45;;;;;;;5.25;4.68;;;16.20;99.90;;;;;;5035723;28;20076;-64
2022/05/24 03:40:12;;;;;;;5.67;4.57;;;16.10;99.90;;;;;;5019296;28;20119;-64
2022/05/24 03:42:38;;;;;;;6.57;4.78;;;16.10;99.90;;;;;;5017759;28;20257;-64
2022/05/24 03:45:06;;;;;;;6.63;4.18;;;16.10;99.90;;;;;;5035511;28;20025;-63
2022/05/24 03:47:32;;;;;;;4.22;3.83;;;16.10;99.90;;;;;;5035820;28;20048;-64
2022/05/24 03:49:57;;;;;;;7.13;4.35;;;16.20;99.90;;;;;;5035817;28;20021;-64
2022/05/24 03:52:23;;;;;;;4.65;4.13;;;16.40;99.90;;;;;;5017134;28;20168;-65
2022/05/24 03:54:48;;;;;;;5.32;3.95;;;16.40;99.90;;;;;;5035597;28;20077;-65
2022/05/24 03:59:58;;;;;;;4.88;4.00;;;16.50;99.90;;;;;;5035799;28;20607;-64
2022/05/24 04:02:24;;;;;;;5.40;3.08;;;16.50;99.90;;;;;;5035357;28;20075;-64
2022/05/24 04:04:50;;;;;;;6.00;4.03;;;16.60;99.90;;;;;;5035157;28;20116;-64
2022/05/24 04:07:15;;;;;;;3.67;3.00;;;16.60;99.90;;;;;;5035745;28;20029;-64
2022/05/24 04:09:41;;;;;;;4.03;3.13;;;16.60;99.90;;;;;;5017498;28;20034;-64
2022/05/24 04:12:08;;;;;;;5.60;2.63;;;16.70;99.90;;;;;;5035015;28;20036;-64
2022/05/24 04:14:35;;;;;;;4.22;3.35;;;16.70;99.90;;;;;;5035132;28;20071;-64
2022/05/24 04:17:01;;;;;;;6.20;4.00;;;16.60;99.90;;;;;;5016892;28;20029;-64
2022/05/24 04:19:27;;;;;;;3.15;2.67;;;16.60;99.90;;;;;;5034785;28;20095;-64
2022/05/24 04:21:53;;;;;;;3.38;2.58;;;16.70;99.90;;;;;;5034796;28;20030;-64
2022/05/24 04:24:18;;;;;;;5.85;4.15;;;16.60;99.90;;;;;;5016717;28;20029;-64
2022/05/24 04:26:44;;;;;;;4.13;2.53;;;16.50;99.90;;;;;;5034746;28;20510;-64
2022/05/24 04:29:11;;;;;;;5.85;2.67;;;16.60;99.90;;;;;;5034806;28;20388;-64
2022/05/24 04:31:36;;;;;;;3.42;2.60;;;16.60;99.90;;;;;;5034523;28;20021;-63
2022/05/24 04:34:02;;;;;;;5.43;2.03;;;16.70;99.90;;;;;;5034416;28;20025;-64
2022/05/24 04:36:27;;;;;;;5.65;2.10;;;16.70;99.90;;;;;;5034387;28;20268;-64
2022/05/24 04:38:53;;;;;;;3.00;1.98;;;16.70;99.90;;;;;;5016581;28;20396;-65
2022/05/24 04:44:03;;;;;;;2.90;2.40;;;16.90;99.90;;;;;;5034856;28;20134;-64
2022/05/24 04:47:06;;;;;;;3.88;2.35;;;17.00;99.90;;;;;;5034320;28;20072;-64
2022/05/24 04:49:14;;;;;;;9.85;3.35;;;17.00;99.90;;;;;;5034203;28;20041;-64
2022/05/24 04:51:39;;;;;;;2.83;2.28;;;16.90;99.90;;;;;;5034219;28;20116;-63
2022/05/24 04:54:05;;;;;;;6.33;2.40;;;17.00;99.90;;;;;;5034006;28;20033;-64
2022/05/24 04:56:30;;;;;;;5.37;2.00;;;17.00;99.90;;;;;;5033989;28;20322;-64
2022/05/24 04:58:56;;;;;;;3.35;1.63;;;17.20;99.90;;;;;;5034004;28;20734;-64
2022/05/24 05:01:22;;;;;;;3.53;1.90;;;17.10;99.90;;;;;;5034822;28;20039;-64
2022/05/24 05:03:47;;;;;;;2.25;2.03;;;17.20;99.90;;;;;;5016243;28;20354;-64
2022/05/24 05:06:13;;;;;;;3.75;1.58;;;17.20;99.90;;;;;;5034082;28;20111;-64
2022/05/24 05:08:39;;;;;;;2.38;1.40;;;17.50;99.90;;;;;;5016106;28;20044;-64
2022/05/24 05:11:04;;;;;;;1.92;1.60;;;17.60;99.90;;;;;;5033966;28;20037;-66
2022/05/24 05:13:30;;;;;;;3.03;1.45;;;17.60;99.90;;;;;;5033971;28;20025;-68
2022/05/24 05:15:56;;;;;;;2.95;1.77;;;17.60;99.90;;;;;;5034602;28;20472;-64
2022/05/24 05:18:24;;;;;;;2.38;1.70;;;17.50;99.90;;;;;;5033870;28;20108;-65
2022/05/24 05:20:50;;;;;;;2.05;1.80;;;17.40;99.90;;;;;;5034387;28;20112;-64
2022/05/24 05:23:17;;;;;;;4.32;1.92;;;17.40;99.90;;;;;;5033563;28;20180;-62
2022/05/24 05:25:47;;;;;;;4.47;1.52;;;17.40;99.90;;;;;;5033833;28;20040;-64
2022/05/24 05:28:15;;;;;;;1.92;1.42;;;17.40;99.90;;;;;;5015752;28;20048;-63
2022/05/24 05:33:25;;;;;;;2.88;1.60;;;17.30;99.90;;;;;;5033411;28;20052;-61
2022/05/24 05:35:51;;;;;;;;;;;17.30;99.90;;;;;;5034248;28;20033;-65
2022/05/24 05:38:17;;;;;;;2.50;1.70;;;17.30;99.90;;;;;;5033378;28;19935;-62
2022/05/24 05:40:43;;;;;;;3.53;1.55;;;17.30;99.90;;;;;;5033293;28;20480;-63
2022/05/24 05:43:09;;;;;;;5.25;1.70;;;17.30;99.90;;;;;;5033428;28;20041;-64
2022/05/24 05:45:35;;;;;;;3.90;1.55;;;17.20;99.90;;;;;;5033207;28;20440;-63
2022/05/24 05:48:00;;;;;;;3.05;1.50;;;17.10;99.90;;;;;;5032971;28;20057;-63
2022/05/24 05:50:26;;;;;;;2.70;1.83;;;17.00;99.90;;;;;;5033083;28;20364;-63
2022/05/24 05:52:52;;;;;;;5.38;1.88;;;17.00;99.90;;;;;;5033202;28;20113;-63
2022/05/24 05:55:19;;;;;;;6.23;2.10;;;16.80;99.90;;;;;;5034495;28;20045;-63
2022/05/24 05:57:45;;;;;;;4.28;2.00;;;16.80;99.90;;;;;;5033889;28;20268;-64
2022/05/24 06:00:11;;;;;;;2.80;1.90;;;16.70;99.90;;;;;;5033394;28;20456;-64
2022/05/24 06:02:38;;;;;;;2.67;1.50;;;16.50;99.90;;;;;;5033108;28;20036;-64
2022/05/24 06:05:04;;;;;;;1.92;1.15;;;16.20;99.90;;;;;;5015899;28;20025;-62
2022/05/24 06:07:30;;;;;;;2.33;1.35;;;16.00;99.90;;;;;;5033971;28;20053;-64
2022/05/24 06:09:56;;;;;;;2.20;1.40;;;15.90;99.90;;;;;;5034190;28;20025;-63
2022/05/24 06:12:22;;;;;;;1.67;1.30;;;15.80;99.90;;;;;;5015662;28;20036;-62
2022/05/24 06:14:47;;;;;;;3.60;1.60;;;15.80;99.90;;;;;;5032943;28;20057;-63
2022/05/24 06:17:13;;;;;;;5.05;1.40;;;15.80;99.90;;;;;;5033480;28;20568;-60
2022/05/24 06:19:39;;;;;;;2.58;1.05;;;15.80;99.90;;;;;;5034607;28;20083;-63
2022/05/24 06:22:05;;;;;;;1.88;1.00;;;15.90;99.90;;;;;;5033598;28;20035;-64
2022/05/24 06:24:30;;;;;;;3.88;1.20;;;16.00;99.90;;;;;;5033091;28;20029;-64
2022/05/24 06:26:56;;;;;;;1.00;0.77;;;16.00;99.90;;;;;;5032806;28;20529;-63
2022/05/24 06:29:23;;;;;;;1.35;0.70;;;16.10;99.90;;;;;;5033406;28;20037;-63
2022/05/24 06:31:49;;;;;;;1.20;0.52;;;16.00;99.90;;;;;;5015374;28;20029;-63
2022/05/24 06:34:15;;;;;;;2.75;0.90;;;15.90;99.90;;;;;;5015044;28;20417;-63
2022/05/24 06:36:41;;;;;;;2.03;1.00;;;15.90;99.90;;;;;;5032791;28;20041;-64
2022/05/24 06:39:06;;;;;;;2.33;0.70;;;15.90;99.90;;;;;;5032728;28;20022;-63
2022/05/24 06:41:32;;;;;;;3.72;1.52;;;15.90;99.90;;;;;;5032475;28;20030;-64
2022/05/24 06:43:58;;;;;;;1.45;0.60;;;15.80;99.90;;;;;;5032655;28;20048;-63
2022/05/24 06:46:23;;;;;;;1.15;0.70;;;16.00;99.90;;;;;;5014740;28;20037;-66
2022/05/24 06:48:50;;;;;;;2.08;0.80;;;16.00;99.90;;;;;;5032291;28;20044;-65
2022/05/24 06:51:21;;;;;;;1.40;0.90;;;16.00;99.90;;;;;;5031141;28;20442;-67
2022/05/24 06:53:48;;;;;;;3.20;0.85;;;16.00;99.90;;;;;;5033404;28;20502;-65
2022/05/24 06:56:14;;;;;;;1.48;0.73;;;15.90;99.90;;;;;;5034957;28;20053;-66
2022/05/24 06:58:40;;;;;;;2.65;1.02;;;15.90;99.90;;;;;;5034028;28;20025;-64
2022/05/24 07:03:52;;;;;;;3.03;0.90;;;15.60;99.90;;;;;;5032751;28;20040;-65
2022/05/24 07:06:18;;;;;;;1.38;0.80;;;15.60;99.90;;;;;;5032633;28;20026;-64
2022/05/24 07:08:46;;;;;;;3.22;1.30;;;15.50;99.90;;;;;;5032442;28;20068;-65
2022/05/24 07:11:13;;;;;;;2.80;0.77;;;15.60;99.90;;;;;;5015012;28;20025;-64
2022/05/24 07:13:39;;;;;;;4.57;1.92;;;15.70;99.90;;;;;;5014978;28;20036;-65
2022/05/24 07:16:09;;;;;;;4.93;3.03;;;15.80;99.90;;;;;;5032996;28;20021;-65
2022/05/24 07:18:36;;;;;;;2.45;1.80;;;16.00;99.90;;;;;;5032977;28;20117;-64
2022/05/24 07:21:04;;;;;;;2.20;1.13;;;16.20;99.90;;;;;;5014752;28;20067;-64
2022/05/24 07:23:31;;;;;;;7.85;3.28;;;16.40;99.90;;;;;;5032533;28;20079;-65
2022/05/24 07:26:08;;;;;;;2.88;1.30;;;16.40;99.90;;;;;;5032575;28;20029;-66
2022/05/24 07:28:35;;;;;;;2.53;2.03;;;16.50;99.90;;;;;;5036143;28;20030;-65
2022/05/24 07:31:01;;;;;;;1.73;1.20;;;16.80;99.90;;;;;;5035866;28;20022;-65
2022/05/24 07:33:27;;;;;;;2.13;1.40;;;17.00;99.90;;;;;;5035839;28;20028;-65
2022/05/24 07:35:53;;;;;;;0.82;0.60;;;17.00;99.90;;;;;;5035868;28;20021;-65
2022/05/24 07:38:19;;;;;;;;;;;16.80;99.90;;;;;;5036004;28;20045;-66
2022/05/24 07:46:13;;;;;;;2.25;0.70;;;17.40;99.90;;;;;;5035956;28;20040;-65
2022/05/24 07:48:40;;;;;;;2.03;0.93;;;17.50;99.90;;;;;;5035090;28;20041;-65
2022/05/24 07:51:05;;;;;;;;;;;17.80;99.90;;;;;;5035604;28;20483;-65
2022/05/24 07:53:32;;;;;;;3.47;0.80;;;17.90;99.90;;;;;;5035062;28;19905;-65
2022/05/24 07:55:58;;;;;;;1.38;0.77;;;17.80;99.90;;;;;;5035041;28;20056;-65
2022/05/24 07:58:24;;;;;;;;;;;17.70;99.90;;;;;;5035629;28;20109;-65
2022/05/24 08:00:50;;;;;;;1.88;0.80;;;17.50;99.90;;;;;;5034991;28;19936;-65
2022/05/24 08:03:16;;;;;;;3.60;1.00;;;17.30;99.90;;;;;;5034778;28;20025;-66
2022/05/24 08:05:42;;;;;;;1.58;0.70;;;17.50;99.90;;;;;;5034808;28;20068;-64
2022/05/24 08:08:09;;;;;;;1.83;0.90;;;18.00;99.90;;;;;;5034712;28;20460;-65
2022/05/24 08:10:36;;;;;;;1.50;0.65;;;19.10;99.90;;;;;;5034735;28;20026;-65
2022/05/24 08:13:07;;;;;;;2.38;0.82;;;20.00;99.90;;;;;;5035091;28;20022;-64
2022/05/24 08:15:33;;;;;;;2.60;1.20;;;20.50;99.90;;;;;;5035611;28;20032;-65
2022/05/24 08:17:59;;;;;;;2.42;0.50;;;21.50;99.90;;;;;;5034779;28;20096;-66
2022/05/24 08:20:25;;;;;;;;;;;22.60;99.90;;;;;;5017291;28;20087;-65
2022/05/24 08:22:51;;;;;;;1.67;0.70;;;22.90;99.90;;;;;;5034534;28;20276;-66
2022/05/24 08:25:17;;;;;;;;;;;23.60;98.30;;;;;;5034959;28;20040;-66
2022/05/24 08:27:43;;;;;;;1.70;0.82;;;24.00;96.60;;;;;;5034624;28;19916;-64
2022/05/24 08:30:11;;;;;;;3.33;0.68;;;24.50;96.30;;;;;;5034285;28;20029;-65
2022/05/24 08:32:37;;;;;;;1.45;0.70;;;23.90;96.30;;;;;;5034032;28;20033;-64
2022/05/24 08:35:04;;;;;;;1.40;0.70;;;23.60;95.40;;;;;;5034275;28;20033;-65
2022/05/24 08:37:30;;;;;;;1.55;0.77;;;24.00;94.70;;;;;;5033162;28;20391;-66
2022/05/24 08:39:57;;;;;;;0.75;0.65;;;24.10;95.20;;;;;;5016119;28;20032;-66
2022/05/24 08:42:27;;;;;;;3.72;0.95;;;24.90;94.20;;;;;;5016157;28;20033;-65
2022/05/24 08:50:40;;;;;;;1.00;0.60;;;24.40;93.10;;;;;;5034764;28;20040;-65
2022/05/24 08:53:10;;;;;;;1.20;0.80;;;24.90;92.00;;;;;;5034150;28;20498;-65
2022/05/24 08:55:37;;;;;;;1.42;0.55;;;25.90;91.90;;;;;;5033733;28;20026;-65
2022/05/24 08:58:07;;;;;;;1.70;0.70;;;27.00;89.20;;;;;;5033578;28;20021;-66
2022/05/24 09:00:42;;;;;;;1.35;0.60;;;26.80;88.40;;;;;;5034062;28;20021;-65
2022/05/24 09:03:09;;;;;;;1.95;0.73;;;25.00;89.20;;;;;;5033978;28;20104;-65
2022/05/24 09:05:47;;;;;;;1.13;0.65;;;24.20;89.40;;;;;;5033969;28;20411;-64
2022/05/24 09:08:20;;;;;;;2.13;0.70;;;23.80;90.90;;;;;;5034059;28;20387;-65
2022/05/24 09:11:08;;;;;;;2.72;0.80;;;24.40;90.70;;;;;;5033872;28;20109;-65
2022/05/24 09:13:42;;;;;;;1.38;0.50;;;25.90;89.20;;;;;;5033710;28;20026;-65
2022/05/24 09:16:14;;;;;;;2.88;0.47;;;27.00;85.40;;;;;;5033972;28;20050;-65
2022/05/24 09:19:04;;;;;;;1.95;0.98;;;28.30;81.60;;;;;;5033242;28;20101;-65
2022/05/24 09:21:31;;;;;;;1.75;0.60;;;29.00;77.20;;;;;;5033546;28;20104;-65
2022/05/24 09:24:15;;;;;;;2.05;0.50;;;29.70;74.50;;;;;;5033701;28;20029;-66
2022/05/24 09:27:08;;;;;;;0.63;0.60;;;30.20;72.50;;;;;;5033775;28;20025;-66
2022/05/24 09:29:36;;;;;;;1.40;0.55;;;30.90;71.20;;;;;;5033498;28;20468;-66
2022/05/24 09:32:11;;;;;;;1.17;0.73;;;29.00;72.40;;;;;;5033333;28;20144;-65
2022/05/24 09:34:38;;;;;;;1.00;0.70;;;28.50;73.50;;;;;;5033467;28;20030;-65
2022/05/24 09:37:23;;;;;;;2.28;0.90;;;27.60;75.70;;;;;;5033397;28;20022;-65
2022/05/24 09:40:00;;;;;;;2.97;0.70;;;27.20;75.40;;;;;;5034421;28;20021;-65
2022/05/24 09:42:30;;;;;;;;;;;27.20;75.50;;;;;;5033718;28;20155;-65
2022/05/24 09:45:02;;;;;;;1.23;0.47;;;27.40;74.00;;;;;;5033243;28;19905;-65
2022/05/24 09:47:32;;;;;;;1.40;0.57;;;27.50;73.80;;;;;;5014857;28;20037;-66
2022/05/24 09:50:20;;;;;;;2.92;0.95;;;28.40;72.40;;;;;;5032478;28;20025;-65
2022/05/24 09:53:14;;;;;;;1.30;0.50;;;28.90;71.30;;;;;;5032966;28;20389;-64
2022/05/24 09:55:49;;;;;;;1.02;0.50;;;29.10;70.30;;;;;;5032997;28;20083;-64
2022/05/24 09:58:29;;;;;;;1.33;0.52;;;29.10;68.10;;;;;;5033629;28;20025;-65
2022/05/24 10:00:57;;;;;;;2.65;0.70;;;29.00;69.50;;;;;;5033081;28;20092;-65
2022/05/24 10:03:27;;;;;;;0.88;0.50;;;29.60;69.10;;;;;;5033037;28;20056;-65
2022/05/24 10:06:12;;;;;;;1.98;0.50;;;30.20;66.80;;;;;;5032887;28;20373;-65
2022/05/24 10:08:46;;;;;;;1.15;0.57;;;30.00;66.00;;;;;;5033100;28;20076;-65
2022/05/24 10:11:29;;;;;;;0.73;0.73;;;30.20;65.10;;;;;;5032957;28;20048;-66
2022/05/24 10:14:16;;;;;;;3.95;0.90;;;30.50;64.30;;;;;;5033255;28;20356;-67
2022/05/24 10:16:50;;;;;;;0.52;0.52;;;30.90;63.10;;;;;;5033241;28;20017;-66
2022/05/24 10:19:47;;;;;;;1.35;0.75;;;31.10;62.50;;;;;;5033795;28;20086;-66
2022/05/24 10:22:21;;;;;;;;;;;30.80;62.80;;;;;;5025175;28;20071;-65
2022/05/24 10:25:05;;;;;;;1.45;0.65;;;31.30;61.10;;;;;;5047864;28;19932;-65
2022/05/24 10:28:14;;;;;;;1.08;0.60;;;32.20;60.00;;;;;;5032392;28;20103;-64
2022/05/24 10:31:03;;;;;;;1.15;0.55;;;32.60;60.00;;;;;;5006625;28;20045;-65
2022/05/24 10:39:40;;;;;;;2.05;0.80;;;29.40;60.90;;;;;;5032658;28;20033;-65
2022/05/24 10:42:11;;;;;;;1.50;0.57;;;28.60;60.30;;;;;;5032753;28;20040;-65
2022/05/24 10:44:46;;;;;;;1.95;0.65;;;28.10;60.80;;;;;;5032480;28;20026;-65
2022/05/24 10:47:33;;;;;;;2.47;0.60;;;28.10;60.80;;;;;;5032283;28;20037;-65
2022/05/24 10:50:05;;;;;;;1.98;0.60;;;28.50;60.80;;;;;;5032949;28;20025;-65
2022/05/24 10:52:38;;;;;;;2.13;0.55;;;28.70;60.80;;;;;;5032533;28;20383;-65
2022/05/24 10:55:18;;;;;;;0.90;0.40;;;28.80;60.40;;;;;;5032598;28;20092;-65
2022/05/24 10:58:01;;;;;;;2.67;0.50;;;29.50;59.40;;;;;;5032362;28;20086;-65
2022/05/24 11:00:37;;;;;;;1.30;0.55;;;29.20;60.80;;;;;;5033440;28;20036;-65
2022/05/24 11:03:10;;;;;;;1.60;0.82;;;29.30;59.80;;;;;;5036097;28;20112;-66
2022/05/24 11:05:54;;;;;;;2.55;1.00;;;28.60;59.60;;;;;;5036294;28;20106;-65
2022/05/24 11:08:37;;;;;;;3.60;1.20;;;27.10;61.70;;;;;;5036437;28;20391;-66
2022/05/24 11:11:30;;;;;;;55.22;35.92;;;25.60;64.70;;;;;;5036196;28;20120;-66
2022/05/24 11:14:03;;;;;;;11.02;7.15;;;24.80;68.10;;;;;;5036159;28;20519;-65
2022/05/24 11:16:44;;;;;;;4.55;1.45;;;24.30;70.20;;;;;;5035852;28;20044;-65
2022/05/24 11:19:18;;;;;;;20.05;13.82;;;24.00;70.70;;;;;;5035495;28;20036;-65
2022/05/24 11:22:21;;;;;;;33.60;22.25;;;23.70;72.60;;;;;;5036112;28;20022;-65
2022/05/24 11:25:02;;;;;;;4.88;3.03;;;23.30;73.20;;;;;;5035855;28;20056;-65
2022/05/24 11:27:38;;;;;;;6.97;3.13;;;22.90;71.00;;;;;;5035574;28;20033;-65
2022/05/24 11:30:14;;;;;;;7.88;3.88;;;22.70;73.90;;;;;;5035617;28;20480;-66
2022/05/24 11:32:52;;;;;;;8.50;2.90;;;22.60;73.80;;;;;;5035604;28;20384;-65
2022/05/24 11:35:18;;;;;;;6.95;3.45;;;22.40;72.60;;;;;;5035929;28;20032;-66
2022/05/24 11:37:45;;;;;;;2.53;1.80;;;22.40;73.90;;;;;;5017382;28;20396;-65
2022/05/24 11:40:55;;;;;;;2.75;1.00;;;22.20;73.20;;;;;;5035131;28;20099;-65
2022/05/24 11:43:35;;;;;;;2.95;1.48;;;22.20;72.70;;;;;;4975186;28;20031;-65
2022/05/24 11:46:28;;;;;;;2.03;0.68;;;22.10;74.80;;;;;;4974658;28;20023;-65
2022/05/24 11:48:55;;;;;;;2.70;1.48;;;22.10;74.40;;;;;;4973781;28;20437;-64
2022/05/24 11:51:47;;;;;;;3.30;0.75;;;22.20;74.60;;;;;;4974564;28;20031;-63
2022/05/24 11:54:19;;;;;;;4.10;1.65;;;22.30;74.60;;;;;;4974425;28;20046;-64
2022/05/24 11:56:55;;;;;;;2.80;1.50;;;22.30;75.00;;;;;;4974473;28;20018;-63
2022/05/24 11:59:38;;;;;;;1.85;0.40;;;22.20;74.20;;;;;;4957962;28;20509;-68
2022/05/24 12:02:19;;;;;;;2.00;0.50;;;22.00;73.00;;;;;;4974373;28;20069;-65
2022/05/24 12:07:55;;;;;;;1.27;0.40;;;21.80;74.60;;;;;;4974138;28;20038;-65
2022/05/24 12:10:21;;;;;;;2.38;0.50;;;21.80;74.50;;;;;;4974031;28;20106;-65
2022/05/24 12:12:56;;;;;;;1.13;0.40;;;21.60;75.80;;;;;;4973629;28;20462;-65
2022/05/24 12:15:43;;;;;;;0.77;0.50;;;21.70;76.10;;;;;;4974395;28;20077;-65
2022/05/24 12:18:09;;;;;;;1.30;0.50;;;21.70;75.80;;;;;;4974174;28;20023;-65
2022/05/24 12:20:35;;;;;;;2.15;0.40;;;21.70;76.10;;;;;;5033011;28;20109;-64
2022/05/24 12:23:06;;;;;;;1.02;0.60;;;21.80;75.40;;;;;;5016960;28;20091;-66
2022/05/24 12:25:51;;;;;;;1.58;0.60;;;21.90;75.10;;;;;;5017255;28;20021;-66
2022/05/24 12:28:18;;;;;;;1.95;0.50;;;22.20;75.40;;;;;;5034956;28;20022;-65
2022/05/24 12:30:46;;;;;;;1.38;0.68;;;22.30;74.90;;;;;;5035626;28;20018;-65
2022/05/24 12:33:18;;;;;;;0.60;0.45;;;22.40;74.20;;;;;;5034466;28;20029;-66
2022/05/24 12:36:08;;;;;;;1.73;0.45;;;22.30;74.50;;;;;;5017241;28;20021;-68
2022/05/24 12:38:38;;;;;;;1.67;0.52;;;22.20;75.20;;;;;;5016928;28;20017;-65
2022/05/24 12:41:41;;;;;;;2.63;0.85;;;22.30;75.40;;;;;;5016511;28;20029;-66
2022/05/24 12:44:18;;;;;;;4.32;1.13;;;22.60;74.00;;;;;;5016898;28;20037;-65
2022/05/24 12:46:57;;;;;;;0.65;0.50;;;22.70;74.00;;;;;;5035795;28;20037;-65
2022/05/24 12:49:28;;;;;;;1.42;0.60;;;22.90;73.20;;;;;;5035821;28;20142;-66
2022/05/24 12:52:13;;;;;;;0.98;0.50;;;22.80;73.00;;;;;;5035939;28;20021;-66
2022/05/24 12:54:44;;;;;;;1.95;0.57;;;22.90;72.90;;;;;;5036312;28;20089;-67
2022/05/24 12:57:21;;;;;;;0.80;0.50;;;22.90;72.60;;;;;;5035735;28;20021;-66
2022/05/24 12:59:58;;;;;;;2.25;0.60;;;22.60;72.20;;;;;;5035259;28;20018;-66
2022/05/24 13:02:39;;;;;;;2.25;0.50;;;22.50;72.00;;;;;;5035004;28;20068;-66
2022/05/24 13:05:08;;;;;;;5.50;0.65;;;22.40;72.00;;;;;;5035283;28;20022;-66
2022/05/24 13:07:39;;;;;;;2.08;0.75;;;22.40;72.20;;;;;;5018094;28;20438;-66
2022/05/24 13:10:26;;;;;;;1.85;0.50;;;22.30;72.10;;;;;;5018235;28;20025;-66
2022/05/24 13:12:57;;;;;;;1.40;0.32;;;22.20;71.90;;;;;;5038625;28;20051;-67
2022/05/24 13:15:30;;;;;;;1.08;0.40;;;22.10;71.10;;;;;;5040315;28;20025;-67
2022/05/24 13:18:02;;;;;;;1.83;0.73;;;22.10;70.80;;;;;;5040604;28;20017;-66
2022/05/24 13:20:46;;;;;;;1.15;0.80;;;22.10;71.70;;;;;;5040283;28;20026;-67
2022/05/24 13:23:15;;;;;;;0.77;0.40;;;22.20;71.30;;;;;;5039502;28;20018;-66
2022/05/24 13:25:57;;;;;;;3.50;0.63;;;22.20;71.30;;;;;;5020099;28;20093;-66
2022/05/24 13:28:43;;;;;;;3.33;0.52;;;22.10;71.40;;;;;;5039785;28;20018;-65
2022/05/24 13:34:17;;;;;;;4.43;0.50;;;22.10;72.40;;;;;;5035983;28;20490;-66
2022/05/24 13:36:46;;;;;;;1.35;0.43;;;22.20;73.40;;;;;;5035584;28;20045;-66
2022/05/24 13:39:29;;;;;;;2.20;0.75;;;22.30;72.80;;;;;;5035394;28;20117;-66
2022/05/24 13:42:02;;;;;;;2.38;0.70;;;22.40;72.90;;;;;;5034932;28;20033;-67
2022/05/24 13:44:30;;;;;;;1.40;0.80;;;22.30;73.10;;;;;;5034778;28;20049;-66
2022/05/24 13:47:03;;;;;;;1.88;0.50;;;22.30;73.30;;;;;;5034103;28;20052;-66
2022/05/24 13:49:31;;;;;;;1.25;0.35;;;22.20;73.70;;;;;;5034163;28;20037;-66
2022/05/24 13:52:27;;;;;;;3.97;0.60;;;22.10;74.00;;;;;;5033896;28;20079;-65
2022/05/24 13:55:18;;;;;;;1.60;0.60;;;22.20;73.20;;;;;;5034103;28;20036;-65
2022/05/24 13:57:55;;;;;;;1.00;0.52;;;22.20;72.80;;;;;;5033835;28;20029;-64
2022/05/24 14:00:35;;;;;;;1.35;0.60;;;22.30;70.80;;;;;;5016314;28;20026;-65